• Join FlightAware (Why Join?)
  • Login
  • US Flag 
10:21PM EDT


 

Airport Tracker/Info


-or-


 

Live Flight TrackerFlight Track Log ✈ CTL62 ✈ 22-Jun-2013 ✈ KPWK - KOSU

Flight Track Log - Related Links

Times and Time Zones

All times are in EDT time to prevent confusion due to time zone crossing. See the CTL62 flight status page for this flight to view local times or setup timezone preferences in your user account.

Time Position Orientation Groundspeed Altitude Reporting Facility
EDT Latitude Longitude Course Direction KTS MPH feet Rate Location/Type
01:55AM 42.1333 -87.7000 124° Southeast 158 182 2,200  Level Chicago TRACON
01:56AM 42.1167 -87.6667 124° Southeast 154 177 2,600 540 Climbing Chicago TRACON
01:57AM 42.1211 -87.6350 79° East 159 183 3,000 780 Climbing Chicago Center
01:58AM 42.1244 -87.5797 85° East 153 176 3,800 780 Climbing Chicago Center
01:59AM 42.1231 -87.5272 92° East 145 167 4,600 780 Climbing Chicago Center
02:00AM 42.1200 -87.4778 95° East 134 154 5,400 720 Climbing Chicago Center
02:01AM 42.1022 -87.4381 121° Southeast 130 150 6,100 660 Climbing Chicago Center
02:02AM 42.0842 -87.3950 119° Southeast 132 152 6,800 600 Climbing Chicago Center
02:03AM 42.0661 -87.3544 121° Southeast 129 148 7,400 540 Climbing Chicago Center
02:04AM 42.0458 -87.3114 122° Southeast 135 155 7,900 540 Climbing Chicago Center
02:05AM 42.0269 -87.2683 121° Southeast 134 154 8,500 540 Climbing Chicago Center
02:06AM 42.0106 -87.2267 118° Southeast 128 147 9,000 300 Climbing Chicago Center
02:07AM 41.9931 -87.1803 117° Southeast 137 158 9,100  Climbing Chicago Center
02:08AM 41.9694 -87.1256 120° Southeast 164 189 9,000 -60 Descending Chicago Center
02:09AM 41.9433 -87.0725 123° Southeast 170 196 9,000  Level Chicago Center
02:10AM 41.9194 -87.0172 120° Southeast 172 198 9,100  Climbing Chicago Center
02:11AM 41.8947 -86.9597 120° Southeast 176 203 9,100  Level Chicago Center
02:12AM 41.8694 -86.9036 121° Southeast 178 205 9,100  Level Chicago Center
02:13AM 41.8442 -86.8467 121° Southeast 177 204 9,100 -60 Level Chicago Center
02:14AM 41.8186 -86.7922 122° Southeast 175 201 9,000  Descending Chicago Center
02:15AM 41.7936 -86.7383 122° Southeast 172 198 9,100  Climbing Chicago Center
02:16AM 41.7650 -86.6747 121° Southeast 176 203 9,100  Level Chicago Center
02:17AM 41.7406 -86.6203 121° Southeast 172 198 9,100 -60 Level Chicago Center
02:18AM 41.7161 -86.5681 122° Southeast 168 193 9,000  Descending Chicago Center
02:19AM 41.6931 -86.5144 120° Southeast 167 192 9,100  Climbing Chicago Center
02:20AM 41.6669 -86.4608 123° Southeast 172 198 9,100  Level Chicago Center
02:21AM 41.6411 -86.4064 122° Southeast 174 200 9,100 -120 Level Chicago Center
02:22AM 41.6150 -86.3503 122° Southeast 178 205 8,900 -120 Descending Chicago Center
02:23AM 41.5903 -86.2956 121° Southeast 176 203 8,900  Level Chicago Center
02:24AM 41.5656 -86.2392 120° Southeast 177 204 9,000 60 Climbing Chicago Center
02:25AM 41.5408 -86.1828 120° Southeast 177 204 9,100 -60 Climbing Chicago Center
02:26AM 41.5156 -86.1269 121° Southeast 176 203 8,900 -120 Descending Chicago Center
02:27AM 41.4906 -86.0703 120° Southeast 179 206 8,900  Level Chicago Center
02:28AM 41.4647 -86.0153 122° Southeast 177 204 8,900  Level Chicago Center
02:29AM 41.4383 -85.9606 123° Southeast 176 203 8,900  Level Chicago Center
02:30AM 41.4133 -85.9056 121° Southeast 175 201 8,900  Level Chicago Center
02:31AM 41.3856 -85.8506 124° Southeast 178 205 8,900  Level Chicago Center
02:32AM 41.3592 -85.7972 123° Southeast 175 201 8,900  Level Chicago Center
02:33AM 41.3328 -85.7431 123° Southeast 176 203 8,900  Level Chicago Center
02:34AM 41.3072 -85.6883 122° Southeast 175 201 8,900  Level Chicago Center
02:35AM 41.2833 -85.6331 120° Southeast 175 201 9,000  Climbing Chicago Center
02:36AM 41.2581 -85.5772 121° Southeast 176 203 9,000  Level Chicago Center
02:37AM 41.2328 -85.5200 120° Southeast 180 207 9,000  Level Chicago Center
02:38AM 41.2064 -85.4658 123° Southeast 177 204 9,000  Level Chicago Center
02:39AM 41.1817 -85.4125 122° Southeast 171 197 9,000  Level Chicago Center
02:40AM 41.1564 -85.3592 122° Southeast 171 197 9,000  Level Chicago Center
02:41AM 41.1303 -85.3011 121° Southeast 180 207 9,000  Level Chicago Center
02:42AM 41.1072 -85.2464 119° Southeast 175 201 9,100  Climbing Chicago Center
02:43AM 41.0822 -85.1914 121° Southeast 174 200 9,000 -60 Descending Chicago Center
02:44AM 41.0575 -85.1356 120° Southeast 177 204 9,000  Level Chicago Center
02:45AM 41.0325 -85.0806 121° Southeast 175 201 9,000 -60 Level Chicago Center
02:46AM 41.0100 -85.0244 118° Southeast 174 200 8,900  Descending Chicago Center
02:47AM 40.9836 -84.9708 123° Southeast 174 200 9,100 120 Climbing Chicago Center
02:48AM 40.9586 -84.9183 122° Southeast 172 198 9,200  Climbing Chicago Center
02:49AM 40.9322 -84.8650 123° Southeast 172 198 9,100 -120 Descending Chicago Center
02:50AM 40.9050 -84.8097 123° Southeast 177 204 9,000 -60 Descending Chicago Center
02:51AM 40.8733 -84.7450 123° Southeast 177 204 9,000  Level Chicago Center
02:52AM 40.8486 -84.6908 121° Southeast 174 200 9,100  Climbing Chicago Center
02:53AM 40.8231 -84.6383 123° Southeast 172 198 9,000  Descending Chicago Center
02:54AM 40.7983 -84.5844 121° Southeast 172 198 9,100  Climbing Chicago Center
02:55AM 40.7753 -84.5297 119° Southeast 171 197 9,000 -60 Descending Chicago Center
02:56AM 40.7489 -84.4769 123° Southeast 172 198 9,000  Level Chicago Center
02:57AM 40.7217 -84.4206 122° Southeast 173 199 9,000  Level Indianapolis Center
02:58AM 40.6953 -84.3711 125° Southeast 171 197 9,000  Level Indianapolis Center
02:59AM 40.6681 -84.3178 124° Southeast 173 199 9,000  Level Indianapolis Center
03:00AM 40.6431 -84.2650 122° Southeast 171 197 9,000 -60 Level Indianapolis Center
03:01AM 40.6178 -84.2119 122° Southeast 172 198 8,900 -60 Descending Indianapolis Center
03:02AM 40.5906 -84.1561 123° Southeast 169 194 8,900  Level Indianapolis Center
03:03AM 40.5633 -84.1031 124° Southeast 170 196 9,000  Climbing Indianapolis Center
03:04AM 40.5381 -84.0503 122° Southeast 170 196 9,000  Level Indianapolis Center
03:05AM 40.5125 -84.0003 124° Southeast 169 194 9,000  Level Indianapolis Center
03:06AM 40.4872 -83.9475 122° Southeast 171 197 9,000  Level Indianapolis Center
03:07AM 40.4619 -83.8950 122° Southeast 171 197 9,000  Level Indianapolis Center
03:08AM 40.4367 -83.8394 121° Southeast 174 200 9,000 -180 Level Indianapolis Center
03:09AM 40.4094 -83.7839 123° Southeast 175 201 8,700 -540 Descending Indianapolis Center
03:10AM 40.3825 -83.7211 119° Southeast 186 214 8,000 -660 Descending Indianapolis Center
03:11AM 40.3569 -83.6683 122° Southeast 198 228 7,400 -600 Descending Indianapolis Center
03:12AM 40.3233 -83.6069 126° Southeast 204 235 6,800 -720 Descending Indianapolis Center
03:13AM 40.2944 -83.5436 121° Southeast 201 231 6,000 -600 Descending Indianapolis Center
03:14AM 40.2664 -83.4822 121° Southeast 196 226 5,600 -540 Descending Indianapolis Center
03:15AM 40.2381 -83.4236 122° Southeast 192 221 5,000 -600 Descending Indianapolis Center
03:16AM 40.2108 -83.3639 121° Southeast 189 217 4,400 -900 Descending Indianapolis Center
03:17AM 40.1842 -83.3028 120° Southeast 190 219 3,200 -1,200 Descending Indianapolis Center
03:19AM 40.1457 -83.2253 123° Southeast  Level FlightAware Approximate
03:26AM 40.0798 -83.0732 123° Southeast  Level Estimated
03:27AM 40.0798 -83.0732 123° Southeast  Level Estimated
03:28AM 40.0798 -83.0732 123° Southeast  Level Estimated